Time;durP1;ratioP1;P1;durP2;ratioP2;P2;SDS_P1;SDS_P2;PMS_P1;PMS_P2;Temp;Humidity;BMP_temperature;BMP_pressure;BME280_temperature;BME280_humidity;BME280_pressure;Samples;Min_cycle;Max_cycle;Signal;HPM_P1;HPM_P2
2023/08/05 00:01:23;;;;;;;3.22;2.00;;;;;;;13.54;100.00;101315.09;5048552;28;20183;-43
2023/08/05 00:03:48;;;;;;;5.53;2.03;;;;;;;13.59;100.00;101321.16;5030089;28;20177;-44
2023/08/05 00:06:14;;;;;;;4.03;1.98;;;;;;;13.64;100.00;101326.34;5047528;28;20313;-43
2023/08/05 00:08:39;;;;;;;5.53;2.47;;;;;;;13.54;100.00;101319.63;5049068;28;20648;-43
2023/08/05 00:11:05;;;;;;;8.63;2.38;;;;;;;13.51;100.00;101307.16;5041975;28;20288;-45
2023/08/05 00:13:34;;;;;;;5.13;2.17;;;;;;;13.58;100.00;101307.78;5048238;28;20179;-45
2023/08/05 00:16:00;;;;;;;6.55;2.08;;;;;;;13.55;100.00;101310.59;5047060;28;20179;-46
2023/08/05 00:18:26;;;;;;;8.68;2.70;;;;;;;13.51;100.00;101307.16;5047315;28;20227;-44
2023/08/05 00:20:51;;;;;;;5.88;2.38;;;;;;;13.38;100.00;101309.50;5075420;22;20249;-45
2023/08/05 00:23:17;;;;;;;5.07;2.35;;;;;;;13.29;100.00;101300.91;5018310;28;20685;-45
2023/08/05 00:25:42;;;;;;;7.63;2.42;;;;;;;13.27;100.00;101306.34;5021189;28;20383;-43
2023/08/05 00:28:08;;;;;;;6.53;2.42;;;;;;;13.30;100.00;101316.16;5019446;28;21291;-44
2023/08/05 00:30:33;;;;;;;8.85;2.60;;;;;;;13.31;100.00;101316.06;5023846;28;20188;-44
2023/08/05 00:32:59;;;;;;;7.32;2.55;;;;;;;13.31;100.00;101320.56;5026053;28;20640;-44
2023/08/05 00:35:24;;;;;;;5.97;2.47;;;;;;;13.35;100.00;101328.44;5021836;28;20196;-45
2023/08/05 00:37:50;;;;;;;5.97;2.60;;;;;;;13.31;100.00;101315.19;5025450;28;20677;-45
2023/08/05 00:40:15;;;;;;;4.93;2.03;;;;;;;13.33;100.00;101324.06;5007871;28;20172;-45
2023/08/05 00:42:41;;;;;;;7.40;2.00;;;;;;;13.35;100.00;101323.06;5023745;28;20185;-45
2023/08/05 00:45:06;;;;;;;4.28;2.45;;;;;;;13.39;100.00;101319.31;5008812;28;20177;-42
2023/08/05 00:47:32;;;;;;;2.70;1.90;;;;;;;13.33;100.00;101321.38;5023488;28;20290;-45
2023/08/05 00:49:58;;;;;;;5.90;2.30;;;;;;;13.17;100.00;101310.34;5025309;28;20508;-44
2023/08/05 00:52:25;;;;;;;5.05;2.03;;;;;;;13.11;100.00;101310.59;5007157;28;20263;-45
2023/08/05 00:54:51;;;;;;;6.05;1.85;;;;;;;13.17;100.00;101308.53;5006034;28;20310;-43
2023/08/05 00:57:19;;;;;;;6.55;2.58;;;;;;;13.11;100.00;101307.91;5023210;28;21134;-43
2023/08/05 00:59:44;;;;;;;7.03;2.40;;;;;;;13.05;100.00;101300.97;5023987;28;20548;-45
2023/08/05 01:02:10;;;;;;;8.75;2.30;;;;;;;12.96;100.00;101317.47;5025068;28;20168;-45
2023/08/05 01:04:35;;;;;;;5.78;2.38;;;;;;;12.93;100.00;101318.47;5020382;28;20653;-44
2023/08/05 01:07:02;;;;;;;5.82;2.60;;;;;;;12.82;100.00;101326.13;5019011;28;20731;-44
2023/08/05 01:09:29;;;;;;;4.95;2.17;;;;;;;12.84;100.00;101328.75;4998898;28;20267;-42
2023/08/05 01:11:55;;;;;;;6.22;2.67;;;;;;;12.81;100.00;101323.47;5007104;28;20270;-44
2023/08/05 01:14:20;;;;;;;7.22;2.40;;;;;;;12.88;100.00;101315.13;5008063;28;20290;-43
2023/08/05 01:16:46;;;;;;;6.22;2.50;;;;;;;12.88;100.00;101323.19;5005650;28;20203;-43
2023/08/05 01:19:26;;;;;;;4.13;2.05;;;;;;;12.97;100.00;101336.25;4989611;28;20195;-43
2023/08/05 01:22:13;;;;;;;6.78;2.50;;;;;;;12.86;100.00;101317.00;4997172;28;20187;-44
2023/08/05 01:24:51;;;;;;;6.45;2.50;;;;;;;12.86;100.00;101321.50;4999771;28;20176;-44
2023/08/05 01:27:17;;;;;;;3.75;2.25;;;;;;;12.86;100.00;101329.56;5022947;28;20211;-45
2023/08/05 01:29:43;;;;;;;5.20;2.40;;;;;;;12.91;100.00;101335.63;5021542;28;20570;-44
2023/08/05 01:32:09;;;;;;;4.60;2.50;;;;;;;13.03;100.00;101339.63;5005737;28;20168;-44
2023/08/05 01:34:37;;;;;;;8.32;2.90;;;;;;;12.91;100.00;101335.63;5023139;28;20191;-43
2023/08/05 01:37:03;;;;;;;6.53;2.65;;;;;;;12.97;100.00;101330.88;5022739;28;20599;-43
2023/08/05 01:39:28;;;;;;;7.68;2.55;;;;;;;12.88;100.00;101325.88;5010628;28;20268;-45
2023/08/05 01:41:54;;;;;;;3.20;2.10;;;;;;;12.95;100.00;101327.38;5009328;28;20259;-44
2023/08/05 01:44:19;;;;;;;4.25;2.47;;;;;;;13.05;100.00;101324.31;5019399;28;20643;-44
2023/08/05 01:46:45;;;;;;;9.38;2.58;;;;;;;12.98;100.00;101320.97;5022499;28;20219;-45
2023/08/05 01:49:10;;;;;;;5.35;2.40;;;;;;;12.94;100.00;101316.66;5025859;28;20176;-45
2023/08/05 01:51:36;;;;;;;6.97;2.30;;;;;;;12.95;100.00;101327.38;5024535;28;20202;-43
2023/08/05 01:54:01;;;;;;;7.00;2.47;;;;;;;12.99;100.00;101330.81;5027700;28;20286;-44
2023/08/05 01:56:26;;;;;;;8.13;2.60;;;;;;;12.90;100.00;101329.38;5006049;28;20215;-45
2023/08/05 01:58:52;;;;;;;6.43;2.58;;;;;;;12.95;100.00;101327.38;5012019;28;20184;-44
2023/08/05 02:01:17;;;;;;;7.30;2.60;;;;;;;12.96;100.00;101329.09;5008036;28;20188;-46
2023/08/05 02:03:43;;;;;;;10.50;3.13;;;;;;;12.93;100.00;101339.13;5008644;28;20180;-44
2023/08/05 02:06:08;;;;;;;7.28;3.17;;;;;;;12.90;100.00;101333.84;5026011;28;20186;-44
2023/08/05 02:08:34;;;;;;;8.23;2.90;;;;;;;12.95;100.00;101334.56;5009378;28;20674;-46
2023/08/05 02:10:59;;;;;;;5.47;3.28;;;;;;;12.94;100.00;101339.09;5027155;28;20662;-43
2023/08/05 02:13:25;;;;;;;8.75;2.78;;;;;;;12.94;100.00;101338.19;5010398;28;20262;-46
2023/08/05 02:15:50;;;;;;;5.68;2.40;;;;;;;13.03;100.00;101343.22;5008402;28;20230;-46
2023/08/05 02:18:16;;;;;;;5.45;2.53;;;;;;;13.07;100.00;101331.38;5009906;28;20233;-45
2023/08/05 02:20:41;;;;;;;6.18;2.33;;;;;;;13.17;100.00;101334.56;5028042;28;20187;-45
2023/08/05 02:23:07;;;;;;;5.18;2.58;;;;;;;13.20;100.00;101338.00;5027645;28;20638;-44
2023/08/05 02:25:32;;;;;;;5.22;2.60;;;;;;;13.18;100.00;101339.91;5025142;28;20179;-43
2023/08/05 02:27:58;;;;;;;8.75;3.00;;;;;;;13.23;100.00;101330.72;5024754;28;20208;-43
2023/08/05 02:30:23;;;;;;;5.93;2.30;;;;;;;13.29;100.00;101342.16;5026666;28;20176;-44
2023/08/05 02:32:49;;;;;;;6.85;3.10;;;;;;;13.25;100.00;101343.22;5026525;28;20338;-43
2023/08/05 02:35:14;;;;;;;7.78;2.90;;;;;;;13.25;100.00;101329.75;5026351;28;20263;-45
2023/08/05 02:37:40;;;;;;;5.18;2.35;;;;;;;13.33;100.00;101327.63;5009860;28;20203;-45
2023/08/05 02:40:06;;;;;;;3.97;2.28;;;;;;;13.32;100.00;101322.34;5025785;28;20196;-42
2023/08/05 02:42:31;;;;;;;4.53;2.63;;;;;;;13.37;100.00;101328.41;5007104;28;20580;-45
2023/08/05 02:44:57;;;;;;;7.13;2.72;;;;;;;13.36;100.00;101340.13;5028266;28;20176;-45
2023/08/05 02:47:22;;;;;;;5.97;2.50;;;;;;;13.39;100.00;101338.16;5008444;28;20215;-45
2023/08/05 02:49:48;;;;;;;7.18;2.60;;;;;;;13.38;100.00;101333.72;5006968;28;20472;-45
2023/08/05 02:52:13;;;;;;;6.93;2.47;;;;;;;13.37;100.00;101331.09;5008852;28;20187;-43
2023/08/05 02:54:38;;;;;;;5.97;2.50;;;;;;;13.31;100.00;101329.50;5024625;28;20674;-44
2023/08/05 02:57:04;;;;;;;2.90;2.30;;;;;;;13.39;100.00;101326.53;5003528;28;20222;-43
2023/08/05 02:59:29;;;;;;;7.18;2.72;;;;;;;13.41;100.00;101337.22;5023098;28;20230;-42
2023/08/05 03:01:55;;;;;;;3.67;2.40;;;;;;;13.42;100.00;101330.88;5007796;28;20190;-44
2023/08/05 03:04:21;;;;;;;7.07;2.75;;;;;;;13.43;100.00;101321.91;5024919;28;20180;-43
2023/08/05 03:06:46;;;;;;;5.53;2.60;;;;;;;13.45;100.00;101328.09;5007045;28;20578;-44
2023/08/05 03:09:13;;;;;;;7.85;3.03;;;;;;;13.36;100.00;101337.44;5026981;28;20187;-45
2023/08/05 03:11:39;;;;;;;8.73;2.75;;;;;;;13.34;100.00;101348.25;5009759;28;20310;-43
2023/08/05 03:14:04;;;;;;;9.13;3.17;;;;;;;13.35;100.00;101352.66;5005850;28;20267;-42
2023/08/05 03:16:30;;;;;;;7.13;2.95;;;;;;;13.35;100.00;101346.41;5024592;28;20183;-45
2023/08/05 03:19:04;;;;;;;6.95;2.47;;;;;;;13.42;100.00;101355.97;5009558;28;20530;-44
2023/08/05 03:21:31;;;;;;;6.70;2.50;;;;;;;13.42;100.00;101352.44;5006244;28;20192;-45
2023/08/05 03:23:58;;;;;;;9.13;2.72;;;;;;;13.42;100.00;101347.91;5010357;28;20586;-44
2023/08/05 03:26:24;;;;;;;6.50;2.63;;;;;;;13.46;100.00;101354.91;5005491;28;20192;-45
2023/08/05 03:28:51;;;;;;;6.75;2.60;;;;;;;13.44;100.00;101342.47;5003824;28;20172;-45
2023/08/05 03:31:17;;;;;;;4.20;2.80;;;;;;;13.44;100.00;101340.66;5026319;28;20715;-44
2023/08/05 03:33:43;;;;;;;5.90;2.53;;;;;;;13.52;100.00;101343.03;5010857;28;20237;-44
2023/08/05 03:36:09;;;;;;;6.57;2.47;;;;;;;13.56;100.00;101356.28;5002024;28;20218;-43
2023/08/05 03:38:35;;;;;;;5.50;2.85;;;;;;;13.58;100.00;101340.09;4991155;28;20337;-44
2023/08/05 03:41:04;;;;;;;9.68;2.45;;;;;;;13.55;100.00;101351.84;5026878;28;20271;-43
2023/08/05 03:43:30;;;;;;;4.95;2.17;;;;;;;13.54;100.00;101344.72;5003794;28;20184;-44
2023/08/05 03:45:55;;;;;;;6.47;2.67;;;;;;;13.63;100.00;101342.56;5024906;28;20195;-45
2023/08/05 03:48:21;;;;;;;6.70;2.47;;;;;;;13.62;100.00;101354.28;5016736;28;20218;-45
2023/08/05 03:50:46;;;;;;;5.30;2.70;;;;;;;13.62;100.00;101348.88;5025561;28;20184;-46
2023/08/05 03:53:12;;;;;;;4.57;2.28;;;;;;;13.70;100.00;101344.06;5023438;28;20172;-45
2023/08/05 03:55:38;;;;;;;5.70;2.55;;;;;;;13.76;100.00;101335.72;5006251;28;20282;-44
2023/08/05 03:58:04;;;;;;;6.55;2.60;;;;;;;13.76;100.00;101346.50;5010532;28;20195;-44
2023/08/05 04:00:31;;;;;;;4.38;2.20;;;;;;;13.78;100.00;101332.00;5011127;28;20179;-46
2023/08/05 04:02:56;;;;;;;6.03;2.30;;;;;;;13.83;100.00;101333.63;5025818;28;20180;-43
2023/08/05 04:05:22;;;;;;;5.00;2.60;;;;;;;13.86;100.00;101338.88;5008079;28;20551;-46
2023/08/05 04:07:47;;;;;;;9.60;2.67;;;;;;;13.74;100.00;101337.59;5024723;28;20306;-45
2023/08/05 04:10:13;;;;;;;8.60;2.90;;;;;;;13.79;100.00;101325.66;5010112;28;20180;-44
2023/08/05 04:12:38;;;;;;;5.78;2.33;;;;;;;13.79;100.00;101320.28;5024446;28;20596;-45
2023/08/05 04:15:07;;;;;;;5.20;2.55;;;;;;;13.79;100.00;101314.03;5025056;28;20203;-44
2023/08/05 04:17:34;;;;;;;7.15;2.30;;;;;;;13.76;100.00;101303.41;5007274;28;20208;-45
2023/08/05 04:20:00;;;;;;;6.93;2.40;;;;;;;13.78;100.00;101302.38;5008381;28;20672;-44
2023/08/05 04:22:27;;;;;;;6.72;2.15;;;;;;;13.77;100.00;101288.97;5007385;28;20558;-45
2023/08/05 04:24:53;;;;;;;6.15;2.90;;;;;;;13.77;100.00;101287.19;5023748;28;20172;-45
2023/08/05 04:27:21;;;;;;;6.25;2.35;;;;;;;13.80;100.00;101281.66;5005006;28;20220;-44
2023/08/05 04:29:47;;;;;;;5.65;2.70;;;;;;;13.81;100.00;101269.91;5024205;28;20187;-45
2023/08/05 04:32:13;;;;;;;6.90;2.65;;;;;;;13.85;100.00;101275.19;5024691;28;20547;-43
2023/08/05 04:34:39;;;;;;;8.05;3.03;;;;;;;13.88;100.00;101265.13;5025361;28;20246;-44
2023/08/05 04:37:19;;;;;;;3.65;2.30;;;;;;;13.94;100.00;101270.25;5023937;28;20584;-46
2023/08/05 04:39:45;;;;;;;8.95;2.72;;;;;;;13.89;100.00;101274.97;5024946;28;20203;-46
2023/08/05 04:42:11;;;;;;;8.73;2.50;;;;;;;13.90;100.00;101267.75;5023865;28;20252;-44
2023/08/05 04:44:40;;;;;;;9.80;2.83;;;;;;;13.95;100.00;101272.00;5024082;28;20364;-46
2023/08/05 04:47:07;;;;;;;9.32;2.70;;;;;;;13.96;100.00;101271.06;5022644;28;20212;-44
2023/08/05 04:49:32;;;;;;;6.00;2.20;;;;;;;13.97;100.00;101264.75;5007106;28;20176;-45
2023/08/05 04:51:58;;;;;;;5.45;2.53;;;;;;;13.95;100.00;101268.41;5026177;28;20676;-44
2023/08/05 04:54:23;;;;;;;6.90;2.17;;;;;;;14.13;100.00;101266.72;5026393;28;20258;-45
2023/08/05 04:56:49;;;;;;;5.82;2.28;;;;;;;14.27;100.00;101256.16;5023298;28;20195;-44
2023/08/05 04:59:14;;;;;;;7.82;2.50;;;;;;;14.31;100.00;101254.22;5025206;28;20267;-45
2023/08/05 05:01:39;;;;;;;5.80;2.20;;;;;;;14.38;100.00;101255.66;5020124;28;20184;-43
2023/08/05 05:04:05;;;;;;;4.45;1.90;;;;;;;14.57;100.00;101255.69;5018573;28;20226;-45
2023/08/05 05:06:30;;;;;;;5.10;2.33;;;;;;;14.56;100.00;101262.94;5020606;28;20242;-44
2023/08/05 05:08:56;;;;;;;4.05;2.10;;;;;;;14.52;100.00;101250.50;5020567;28;20184;-45
2023/08/05 05:11:21;;;;;;;7.13;2.08;;;;;;;14.36;100.00;101255.72;5022826;28;20183;-45
2023/08/05 05:13:50;;;;;;;8.48;2.40;;;;;;;14.34;100.00;101260.34;5022757;28;20184;-44
2023/08/05 05:16:17;;;;;;;4.32;2.15;;;;;;;14.51;100.00;101262.22;5023825;28;20176;-44
2023/08/05 05:18:43;;;;;;;4.68;2.63;;;;;;;14.41;100.00;101258.22;5026101;28;20634;-45
2023/08/05 05:21:09;;;;;;;7.55;2.70;;;;;;;14.36;100.00;101263.81;5005003;28;20215;-45
2023/08/05 05:23:34;;;;;;;8.85;2.72;;;;;;;14.40;100.00;101262.72;5023316;28;20176;-44
2023/08/05 05:26:00;;;;;;;6.78;2.40;;;;;;;14.49;100.00;101271.34;5025162;28;20188;-44
2023/08/05 05:28:25;;;;;;;5.53;2.20;;;;;;;14.63;100.00;101271.59;5024996;28;20581;-46
2023/08/05 05:30:51;;;;;;;6.55;2.83;;;;;;;14.85;100.00;101279.50;5027229;28;20551;-44
2023/08/05 05:33:16;;;;;;;5.78;2.60;;;;;;;14.85;100.00;101279.50;5027463;28;20173;-44
2023/08/05 05:35:41;;;;;;;7.10;2.35;;;;;;;14.94;100.00;101283.59;5026217;28;20184;-45
2023/08/05 05:38:07;;;;;;;7.53;2.28;;;;;;;14.89;100.00;101281.13;5024201;28;20231;-44
2023/08/05 05:40:32;;;;;;;4.32;2.22;;;;;;;15.00;100.00;101278.75;5028399;28;20551;-44
2023/08/05 05:42:58;;;;;;;6.32;2.42;;;;;;;15.08;100.00;101285.59;5027681;28;20184;-44
2023/08/05 05:45:23;;;;;;;4.80;1.95;;;;;;;15.00;100.00;101278.75;5027776;28;20180;-43
2023/08/05 05:47:49;;;;;;;6.25;1.90;;;;;;;15.03;100.00;101273.19;5027986;28;20252;-46
2023/08/05 05:50:16;;;;;;;3.33;1.90;;;;;;;15.14;100.00;101271.81;5029816;28;20227;-45
2023/08/05 05:52:41;;;;;;;3.38;1.80;;;;;;;15.28;100.00;101285.44;5026849;28;20292;-43
2023/08/05 05:55:08;;;;;;;5.50;2.03;;;;;;;15.29;100.00;101295.31;5028188;28;20645;-44
2023/08/05 05:57:34;;;;;;;4.55;1.90;;;;;;;15.20;100.00;101280.47;5026158;28;20231;-44
2023/08/05 06:00:01;;;;;;;4.13;1.73;;;;;;;15.22;100.00;101294.75;5026687;28;20226;-45
2023/08/05 06:02:29;;;;;;;3.55;2.00;;;;;;;15.28;100.00;101296.25;5026896;28;20237;-44
2023/08/05 06:04:54;;;;;;;7.20;2.28;;;;;;;15.34;100.00;101292.38;5023844;28;20680;-42
2023/08/05 06:07:19;;;;;;;4.45;1.88;;;;;;;15.40;100.00;101298.34;5021567;28;20207;-45
2023/08/05 06:09:45;;;;;;;3.85;1.70;;;;;;;15.52;100.00;101293.25;5012827;28;20184;-43
2023/08/05 06:12:11;;;;;;;5.13;1.90;;;;;;;15.56;100.00;101301.13;5027498;28;20553;-44
2023/08/05 06:14:36;;;;;;;5.88;1.73;;;;;;;15.63;100.00;101299.88;5011477;28;20195;-44
2023/08/05 06:17:03;;;;;;;6.85;1.95;;;;;;;15.65;100.00;101306.06;5021201;28;20274;-46
2023/08/05 06:19:28;;;;;;;6.05;1.77;;;;;;;15.59;100.00;101303.69;5024328;28;20278;-44
2023/08/05 06:21:53;;;;;;;5.65;1.90;;;;;;;15.66;100.00;101315.03;5027579;28;20570;-44
2023/08/05 06:24:19;;;;;;;6.00;2.10;;;;;;;15.77;100.00;101301.00;5025956;28;20184;-46
2023/08/05 06:26:44;;;;;;;6.30;2.00;;;;;;;15.69;100.00;101311.31;5024824;28;20211;-45
2023/08/05 06:29:10;;;;;;;3.53;1.60;;;;;;;15.83;100.00;101303.38;5027858;28;20180;-44
2023/08/05 06:31:35;;;;;;;6.95;1.80;;;;;;;15.93;100.00;101304.63;5027759;28;20184;-45
2023/08/05 06:34:01;;;;;;;7.05;1.88;;;;;;;16.03;100.00;101305.91;5026184;28;20183;-46
2023/08/05 06:36:26;;;;;;;4.68;1.50;;;;;;;15.94;100.00;101308.22;5023497;28;20172;-45
2023/08/05 06:38:52;;;;;;;3.40;1.70;;;;;;;15.86;100.00;101300.53;5026095;28;20183;-45
2023/08/05 06:41:18;;;;;;;6.28;1.50;;;;;;;15.83;100.00;101303.38;5028315;28;20164;-46
2023/08/05 06:43:43;;;;;;;4.60;1.60;;;;;;;15.93;100.00;101304.63;5028302;28;20180;-46
2023/08/05 06:46:09;;;;;;;3.05;1.55;;;;;;;15.97;100.00;101308.94;5025322;28;20176;-45
2023/08/05 06:48:34;;;;;;;4.13;1.50;;;;;;;16.21;100.00;101300.47;5026019;28;20215;-45
2023/08/05 06:51:00;;;;;;;4.57;1.40;;;;;;;16.28;100.00;101301.88;5028662;28;20594;-46
2023/08/05 06:53:26;;;;;;;5.68;1.35;;;;;;;16.23;100.00;101301.25;5025281;28;20214;-45
2023/08/05 06:56:02;;;;;;;2.22;1.27;;;;;;;16.37;100.00;101300.50;5020844;28;20191;-44
2023/08/05 06:58:27;;;;;;;3.55;1.50;;;;;;;16.45;100.00;101298.25;5026528;28;20195;-44
2023/08/05 07:00:53;;;;;;;3.30;1.40;;;;;;;16.57;100.00;101302.09;5025034;28;20184;-44
2023/08/05 07:03:18;;;;;;;2.90;1.40;;;;;;;16.52;100.00;101310.47;5026555;28;20238;-45
2023/08/05 07:05:44;;;;;;;3.97;1.38;;;;;;;16.68;99.74;101300.53;5026220;28;20263;-44
2023/08/05 07:08:10;;;;;;;3.92;1.50;;;;;;;16.65;98.80;101313.38;5026554;28;20219;-44
2023/08/05 07:10:36;;;;;;;3.53;1.70;;;;;;;16.71;98.24;101304.91;5025998;28;20211;-45
2023/08/05 07:13:05;;;;;;;3.58;1.80;;;;;;;16.72;96.95;101300.38;5028606;28;20298;-45
2023/08/05 07:15:34;;;;;;;3.83;1.45;;;;;;;16.69;96.79;101307.69;5023963;28;20211;-44
2023/08/05 07:18:00;;;;;;;3.75;1.30;;;;;;;16.89;95.96;101286.78;5023125;28;20358;-45
2023/08/05 07:20:26;;;;;;;3.63;1.58;;;;;;;17.21;94.90;101284.06;5029873;28;20282;-41
2023/08/05 07:22:51;;;;;;;3.65;1.52;;;;;;;17.34;94.66;101287.78;5031332;28;20214;-42
2023/08/05 07:25:17;;;;;;;2.17;1.50;;;;;;;17.50;93.24;101276.88;5031150;28;20180;-42
2023/08/05 07:27:42;;;;;;;4.40;1.55;;;;;;;17.31;92.01;101274.41;5030578;28;20200;-43
2023/08/05 07:30:08;;;;;;;2.92;1.30;;;;;;;17.88;90.92;101269.13;5031095;28;20507;-42
2023/08/05 07:32:34;;;;;;;2.75;1.08;;;;;;;17.75;88.92;101257.28;5030936;28;20195;-42
2023/08/05 07:34:59;;;;;;;3.13;1.30;;;;;;;17.92;88.96;101254.44;5031180;28;20176;-42
2023/08/05 07:37:25;;;;;;;3.45;1.20;;;;;;;17.84;88.04;101261.28;5030736;28;20180;-42
2023/08/05 07:39:50;;;;;;;4.55;1.17;;;;;;;17.90;87.11;101250.94;5030808;28;20160;-42
2023/08/05 07:42:18;;;;;;;3.53;1.13;;;;;;;17.90;86.19;101252.78;5030806;28;20650;-43
2023/08/05 07:44:46;;;;;;;4.20;1.17;;;;;;;17.93;85.94;101247.19;5030772;28;20263;-40
2023/08/05 07:47:12;;;;;;;2.38;1.02;;;;;;;18.06;84.77;101247.28;5030696;28;20204;-43
2023/08/05 07:49:38;;;;;;;1.38;1.23;;;;;;;18.32;83.83;101235.66;5029856;28;20587;-42
2023/08/05 07:52:06;;;;;;;1.65;1.02;;;;;;;18.33;83.18;101244.66;5030715;28;20223;-43
2023/08/05 07:54:32;;;;;;;5.15;1.10;;;;;;;18.33;83.38;101239.25;5030549;28;20160;-41
2023/08/05 07:56:58;;;;;;;4.43;0.90;;;;;;;18.40;82.30;101237.00;5012587;28;20720;-41
2023/08/05 07:59:25;;;;;;;1.00;0.85;;;;;;;18.57;81.15;101231.34;5030722;28;20168;-41
2023/08/05 08:01:53;;;;;;;2.40;1.05;;;;;;;18.64;79.15;101226.38;5030329;28;20216;-41
2023/08/05 08:04:18;;;;;;;2.03;0.88;;;;;;;18.50;78.86;101224.59;5030531;28;20179;-40
2023/08/05 08:06:45;;;;;;;2.40;1.20;;;;;;;18.51;79.38;101223.59;5030049;28;20208;-42
2023/08/05 08:09:11;;;;;;;3.17;1.38;;;;;;;18.20;80.18;101224.72;5030045;28;20697;-42
2023/08/05 08:11:37;;;;;;;3.45;1.00;;;;;;;18.33;81.95;101229.25;5030142;28;20184;-42
2023/08/05 08:14:05;;;;;;;2.38;1.33;;;;;;;17.94;81.40;101220.94;5030087;28;20254;-43
2023/08/05 08:16:32;;;;;;;2.38;1.30;;;;;;;17.80;81.63;101228.06;5012135;28;20181;-44
2023/08/05 08:18:57;;;;;;;3.90;1.10;;;;;;;17.83;81.90;101227.03;5030199;28;20176;-42
2023/08/05 08:21:23;;;;;;;3.17;1.30;;;;;;;17.97;82.98;101223.47;5029881;28;20531;-44
2023/08/05 08:23:48;;;;;;;1.52;1.27;;;;;;;17.92;83.10;101219.19;5030046;28;20209;-42
2023/08/05 08:26:14;;;;;;;2.08;1.08;;;;;;;17.88;82.29;101219.47;5030108;28;20171;-42
2023/08/05 08:28:39;;;;;;;1.90;1.13;;;;;;;17.71;82.26;101220.53;5012326;28;20314;-43
2023/08/05 08:31:04;;;;;;;2.35;1.33;;;;;;;17.75;82.34;101219.34;5029858;28;20235;-42
2023/08/05 08:33:30;;;;;;;2.22;1.10;;;;;;;17.91;82.42;101222.03;5029954;28;20239;-41
2023/08/05 08:35:55;;;;;;;1.42;1.10;;;;;;;18.04;82.09;101217.56;5029771;28;20245;-41
2023/08/05 08:38:25;;;;;;;3.92;1.42;;;;;;;17.94;81.99;101204.69;5029561;28;20203;-40
2023/08/05 08:40:52;;;;;;;4.07;1.20;;;;;;;18.05;82.14;101210.28;5029622;28;20171;-43
2023/08/05 08:43:19;;;;;;;2.85;1.30;;;;;;;18.08;82.63;101210.09;5029704;28;20207;-42
2023/08/05 08:45:53;;;;;;;3.05;1.25;;;;;;;18.22;81.77;101210.09;5029781;28;20199;-42
2023/08/05 08:48:19;;;;;;;2.78;1.55;;;;;;;18.30;81.88;101204.16;5029601;28;20298;-42
2023/08/05 08:50:46;;;;;;;3.22;1.45;;;;;;;18.53;82.17;101205.38;5011927;28;20172;-43
2023/08/05 08:53:13;;;;;;;3.72;1.58;;;;;;;18.43;81.97;101196.09;5029737;28;20186;-42
2023/08/05 08:55:41;;;;;;;1.38;1.27;;;;;;;18.85;81.06;101197.00;5011787;28;20179;-41
2023/08/05 08:58:06;;;;;;;1.50;1.10;;;;;;;19.53;78.54;101163.31;5029451;28;20188;-41
2023/08/05 09:00:33;;;;;;;1.63;1.40;;;;;;;19.75;75.13;101152.69;5030279;28;20661;-43
2023/08/05 09:03:00;;;;;;;1.50;1.20;;;;;;;19.66;74.37;101156.03;5033446;28;20207;-41
2023/08/05 09:05:34;;;;;;;2.03;1.70;;;;;;;20.36;73.34;101146.47;5033775;28;20254;-41
2023/08/05 09:08:02;;;;;;;2.03;1.45;;;;;;;20.43;71.82;101139.59;5033812;28;20291;-41
2023/08/05 09:10:28;;;;;;;3.17;1.80;;;;;;;20.02;71.68;101140.78;5033521;28;20176;-42
2023/08/05 09:12:57;;;;;;;4.30;1.70;;;;;;;19.68;71.81;101151.38;5033572;28;20229;-41
2023/08/05 09:15:31;;;;;;;2.63;1.50;;;;;;;20.33;71.65;101154.84;5033465;28;20179;-40
2023/08/05 09:17:57;;;;;;;3.33;1.50;;;;;;;21.05;70.43;101143.13;5033472;28;20244;-42
2023/08/05 09:20:24;;;;;;;4.93;1.98;;;;;;;21.10;69.35;101140.88;5032742;28;20184;-41
2023/08/05 09:22:57;;;;;;;2.72;1.70;;;;;;;21.40;67.44;101124.84;5033205;28;20483;-41
2023/08/05 09:25:23;;;;;;;3.03;1.88;;;;;;;20.78;67.72;101128.78;5033064;28;20176;-43
2023/08/05 09:27:53;;;;;;;2.58;1.80;;;;;;;21.09;67.51;101115.50;5011801;28;20203;-43
2023/08/05 09:30:20;;;;;;;2.63;1.77;;;;;;;20.71;67.02;101122.06;5033090;28;20160;-42
2023/08/05 09:32:47;;;;;;;1.77;1.50;;;;;;;20.55;68.79;101140.50;5033273;28;20206;-41
2023/08/05 09:35:14;;;;;;;1.83;1.38;;;;;;;21.16;67.52;101126.78;4999698;28;20324;-43
2023/08/05 09:37:51;;;;;;;1.77;1.67;;;;;;;20.79;67.34;101113.28;5033853;28;20598;-41
2023/08/05 09:40:36;;;;;;;2.83;1.80;;;;;;;21.49;67.07;101109.66;5015909;28;20168;-43
2023/08/05 09:43:03;;;;;;;1.98;1.75;;;;;;;21.47;65.51;101098.03;5033032;28;20167;-43
2023/08/05 09:45:32;;;;;;;3.63;1.98;;;;;;;21.31;65.13;101090.16;5032839;28;20180;-44
2023/08/05 09:48:07;;;;;;;1.65;1.50;;;;;;;20.30;66.23;101104.25;5032769;28;20214;-41
2023/08/05 09:50:37;;;;;;;2.85;1.75;;;;;;;20.89;66.06;101106.16;5032733;28;20225;-42
2023/08/05 09:53:06;;;;;;;2.55;1.77;;;;;;;20.24;66.25;101096.53;5032817;28;20188;-42
2023/08/05 09:55:33;;;;;;;2.13;1.85;;;;;;;20.27;67.35;101107.22;5033131;28;20676;-44
2023/08/05 09:57:58;;;;;;;4.43;1.52;;;;;;;20.60;67.90;101119.28;5032924;28;20203;-43
2023/08/05 10:00:24;;;;;;;1.42;1.33;;;;;;;20.13;67.67;101116.38;5033001;28;20168;-43
2023/08/05 10:02:50;;;;;;;3.08;1.70;;;;;;;19.86;67.71;101110.28;5032807;28;20211;-43
2023/08/05 10:05:16;;;;;;;5.43;1.75;;;;;;;19.63;69.45;101128.19;5033099;28;20202;-43
2023/08/05 10:07:43;;;;;;;1.90;1.30;;;;;;;19.59;70.27;101127.56;5032397;28;20670;-41
2023/08/05 10:10:21;;;;;;;1.88;1.42;;;;;;;19.95;69.73;101134.94;5032774;28;20176;-43
2023/08/05 10:13:08;;;;;;;1.48;1.25;;;;;;;20.93;67.63;101099.50;5031582;28;20172;-41
2023/08/05 10:15:40;;;;;;;3.28;1.50;;;;;;;21.27;65.65;101080.47;5032302;28;20235;-44
2023/08/05 10:18:07;;;;;;;3.20;1.85;;;;;;;21.18;65.59;101075.78;5032463;28;20207;-42
2023/08/05 10:20:37;;;;;;;2.55;1.33;;;;;;;21.08;64.19;101061.13;5032446;28;20202;-42
2023/08/05 10:23:06;;;;;;;2.50;1.25;;;;;;;21.09;64.18;101065.59;5032183;28;20178;-42
2023/08/05 10:26:02;;;;;;;3.50;1.10;;;;;;;20.95;63.85;101067.56;5014249;28;20182;-41
2023/08/05 10:28:34;;;;;;;1.67;1.02;;;;;;;21.25;64.14;101070.69;5009329;28;20238;-41
2023/08/05 10:31:03;;;;;;;2.47;1.02;;;;;;;21.37;65.07;101072.47;5032160;28;20544;-43
2023/08/05 10:33:29;;;;;;;3.58;1.48;;;;;;;20.85;64.54;101052.91;5032170;28;20233;-43
2023/08/05 10:36:06;;;;;;;5.32;1.20;;;;;;;20.93;65.00;101055.06;5032078;28;20160;-41
2023/08/05 10:38:41;;;;;;;3.42;1.10;;;;;;;21.05;64.90;101054.06;5031948;28;20574;-44
2023/08/05 10:41:07;;;;;;;1.52;1.20;;;;;;;20.47;64.84;101059.44;5031945;28;20163;-42
2023/08/05 10:43:34;;;;;;;1.30;1.20;;;;;;;20.06;65.18;101065.28;5032101;28;20163;-42
2023/08/05 10:46:05;;;;;;;1.90;1.40;;;;;;;20.27;65.71;101068.22;5031753;28;20168;-41
2023/08/05 10:48:43;;;;;;;2.60;1.40;;;;;;;20.43;67.33;101087.00;5031666;28;20215;-43
2023/08/05 10:51:10;;;;;;;2.45;1.48;;;;;;;20.38;67.97;101099.09;5031704;28;20258;-41
2023/08/05 10:53:36;;;;;;;1.50;1.10;;;;;;;20.55;68.06;101099.66;5031598;28;20184;-43
2023/08/05 10:56:02;;;;;;;2.13;1.30;;;;;;;20.69;68.42;101090.50;5031638;28;20179;-43
2023/08/05 10:58:28;;;;;;;2.03;1.30;;;;;;;20.58;68.54;101088.59;5031490;28;20195;-42
2023/08/05 11:01:01;;;;;;;2.67;1.50;;;;;;;20.55;68.77;101094.22;5031754;28;20187;-43
2023/08/05 11:03:38;;;;;;;1.35;1.25;;;;;;;20.25;68.39;101075.66;5031566;28;20686;-42
2023/08/05 11:06:05;;;;;;;2.75;1.35;;;;;;;20.11;68.50;101068.50;5031273;28;20638;-43
2023/08/05 11:08:32;;;;;;;4.70;1.52;;;;;;;20.15;69.93;101078.19;5031262;28;20618;-42
2023/08/05 11:11:13;;;;;;;3.95;1.55;;;;;;;20.23;69.08;101059.44;5031338;28;20171;-43
2023/08/05 11:13:44;;;;;;;2.60;1.48;;;;;;;20.88;67.56;101046.34;5031463;28;20172;-42
2023/08/05 11:16:14;;;;;;;1.63;1.30;;;;;;;21.30;66.21;101036.66;5031309;28;20174;-43
2023/08/05 11:18:42;;;;;;;3.00;1.40;;;;;;;21.10;65.05;101013.72;5030940;28;20198;-44